sensor_id;sensor_type;location;lat;lon;timestamp;temperature;humidity
8436;DHT22;4255;48.730;9.156;2024-03-06T00:01:32;7.90;99.90
8436;DHT22;4255;48.730;9.156;2024-03-06T00:03:59;8.00;99.90
8436;DHT22;4255;48.730;9.156;2024-03-06T00:06:25;7.90;99.90
8436;DHT22;4255;48.730;9.156;2024-03-06T00:08:50;7.80;99.90
8436;DHT22;4255;48.730;9.156;2024-03-06T00:11:16;7.70;99.90
8436;DHT22;4255;48.730;9.156;2024-03-06T00:13:42;7.50;99.90
8436;DHT22;4255;48.730;9.156;2024-03-06T00:16:08;7.50;99.90
8436;DHT22;4255;48.730;9.156;2024-03-06T00:18:34;7.50;99.90
8436;DHT22;4255;48.730;9.156;2024-03-06T00:21:00;7.60;99.90
8436;DHT22;4255;48.730;9.156;2024-03-06T00:23:25;7.50;99.90
8436;DHT22;4255;48.730;9.156;2024-03-06T00:25:51;7.60;99.90
8436;DHT22;4255;48.730;9.156;2024-03-06T00:28:17;7.50;99.90
8436;DHT22;4255;48.730;9.156;2024-03-06T00:30:42;7.60;99.90
8436;DHT22;4255;48.730;9.156;2024-03-06T00:33:08;7.50;99.90
8436;DHT22;4255;48.730;9.156;2024-03-06T00:35:33;7.40;99.90
8436;DHT22;4255;48.730;9.156;2024-03-06T00:37:59;7.40;99.90
8436;DHT22;4255;48.730;9.156;2024-03-06T00:40:28;7.40;99.90
8436;DHT22;4255;48.730;9.156;2024-03-06T00:42:57;7.20;99.90
8436;DHT22;4255;48.730;9.156;2024-03-06T00:45:23;7.10;99.90
8436;DHT22;4255;48.730;9.156;2024-03-06T00:47:49;7.00;99.90
8436;DHT22;4255;48.730;9.156;2024-03-06T00:50:15;7.00;99.90
8436;DHT22;4255;48.730;9.156;2024-03-06T00:52:43;7.00;99.90
8436;DHT22;4255;48.730;9.156;2024-03-06T00:55:09;7.20;99.90
8436;DHT22;4255;48.730;9.156;2024-03-06T00:57:35;7.50;99.90
8436;DHT22;4255;48.730;9.156;2024-03-06T01:00:04;7.50;99.90
8436;DHT22;4255;48.730;9.156;2024-03-06T01:02:39;7.70;99.90
8436;DHT22;4255;48.730;9.156;2024-03-06T01:05:06;7.90;99.90
8436;DHT22;4255;48.730;9.156;2024-03-06T01:07:35;7.80;99.90
8436;DHT22;4255;48.730;9.156;2024-03-06T01:10:03;8.00;99.90
8436;DHT22;4255;48.730;9.156;2024-03-06T01:12:28;8.10;99.90
8436;DHT22;4255;48.730;9.156;2024-03-06T01:14:54;8.20;99.90
8436;DHT22;4255;48.730;9.156;2024-03-06T01:17:19;8.10;99.90
8436;DHT22;4255;48.730;9.156;2024-03-06T01:19:45;8.10;99.90
8436;DHT22;4255;48.730;9.156;2024-03-06T01:22:11;8.10;99.90
8436;DHT22;4255;48.730;9.156;2024-03-06T01:24:39;8.10;99.90
8436;DHT22;4255;48.730;9.156;2024-03-06T01:27:04;8.10;99.90
8436;DHT22;4255;48.730;9.156;2024-03-06T01:29:30;8.10;99.90
8436;DHT22;4255;48.730;9.156;2024-03-06T01:31:56;8.20;99.90
8436;DHT22;4255;48.730;9.156;2024-03-06T01:34:21;8.20;99.90
8436;DHT22;4255;48.730;9.156;2024-03-06T01:36:47;8.10;99.90
8436;DHT22;4255;48.730;9.156;2024-03-06T01:39:13;8.20;99.90
8436;DHT22;4255;48.730;9.156;2024-03-06T01:41:49;8.00;99.90
8436;DHT22;4255;48.730;9.156;2024-03-06T01:44:16;7.90;99.90
8436;DHT22;4255;48.730;9.156;2024-03-06T01:46:45;8.00;99.90
8436;DHT22;4255;48.730;9.156;2024-03-06T01:49:13;8.10;99.90
8436;DHT22;4255;48.730;9.156;2024-03-06T01:51:42;8.20;99.90
8436;DHT22;4255;48.730;9.156;2024-03-06T01:54:11;8.20;99.90
8436;DHT22;4255;48.730;9.156;2024-03-06T01:56:39;8.30;99.90
8436;DHT22;4255;48.730;9.156;2024-03-06T02:01:36;8.20;99.90
8436;DHT22;4255;48.730;9.156;2024-03-06T02:04:02;8.10;99.90
8436;DHT22;4255;48.730;9.156;2024-03-06T02:06:28;8.20;99.90
8436;DHT22;4255;48.730;9.156;2024-03-06T02:08:54;8.20;99.90
8436;DHT22;4255;48.730;9.156;2024-03-06T02:11:20;8.20;99.90
8436;DHT22;4255;48.730;9.156;2024-03-06T02:13:46;8.10;99.90
8436;DHT22;4255;48.730;9.156;2024-03-06T02:16:14;8.00;99.90
8436;DHT22;4255;48.730;9.156;2024-03-06T02:18:51;8.10;99.90
8436;DHT22;4255;48.730;9.156;2024-03-06T02:21:18;8.10;99.90
8436;DHT22;4255;48.730;9.156;2024-03-06T02:23:43;8.00;99.90
8436;DHT22;4255;48.730;9.156;2024-03-06T02:26:10;8.00;99.90
8436;DHT22;4255;48.730;9.156;2024-03-06T02:28:36;8.00;99.90
8436;DHT22;4255;48.730;9.156;2024-03-06T02:31:01;7.90;99.90
8436;DHT22;4255;48.730;9.156;2024-03-06T02:33:27;7.90;99.90
8436;DHT22;4255;48.730;9.156;2024-03-06T02:35:53;7.70;99.90
8436;DHT22;4255;48.730;9.156;2024-03-06T02:38:18;7.40;99.90
8436;DHT22;4255;48.730;9.156;2024-03-06T02:40:44;7.50;99.90
8436;DHT22;4255;48.730;9.156;2024-03-06T02:43:10;7.60;99.90
8436;DHT22;4255;48.730;9.156;2024-03-06T02:45:36;7.50;99.90
8436;DHT22;4255;48.730;9.156;2024-03-06T02:48:01;7.30;99.90
8436;DHT22;4255;48.730;9.156;2024-03-06T02:50:27;7.40;99.90
8436;DHT22;4255;48.730;9.156;2024-03-06T02:52:52;7.30;99.90
8436;DHT22;4255;48.730;9.156;2024-03-06T02:55:19;7.30;99.90
8436;DHT22;4255;48.730;9.156;2024-03-06T02:57:44;7.50;99.90
8436;DHT22;4255;48.730;9.156;2024-03-06T03:00:10;7.50;99.90
8436;DHT22;4255;48.730;9.156;2024-03-06T03:02:41;7.60;99.90
8436;DHT22;4255;48.730;9.156;2024-03-06T03:05:08;7.60;99.90
8436;DHT22;4255;48.730;9.156;2024-03-06T03:07:34;7.60;99.90
8436;DHT22;4255;48.730;9.156;2024-03-06T03:09:59;7.60;99.90
8436;DHT22;4255;48.730;9.156;2024-03-06T03:12:25;7.50;99.90
8436;DHT22;4255;48.730;9.156;2024-03-06T03:14:50;7.50;99.90
8436;DHT22;4255;48.730;9.156;2024-03-06T03:17:18;7.50;99.90
8436;DHT22;4255;48.730;9.156;2024-03-06T03:19:45;7.70;99.90
8436;DHT22;4255;48.730;9.156;2024-03-06T03:22:10;7.80;99.90
8436;DHT22;4255;48.730;9.156;2024-03-06T03:24:36;7.80;99.90
8436;DHT22;4255;48.730;9.156;2024-03-06T03:27:02;7.80;99.90
8436;DHT22;4255;48.730;9.156;2024-03-06T03:29:28;7.80;99.90
8436;DHT22;4255;48.730;9.156;2024-03-06T03:31:55;7.70;99.90
8436;DHT22;4255;48.730;9.156;2024-03-06T03:34:20;7.70;99.90
8436;DHT22;4255;48.730;9.156;2024-03-06T03:36:46;7.70;99.90
8436;DHT22;4255;48.730;9.156;2024-03-06T03:39:13;7.70;99.90
8436;DHT22;4255;48.730;9.156;2024-03-06T03:41:46;7.70;99.90
8436;DHT22;4255;48.730;9.156;2024-03-06T03:44:16;7.70;99.90
8436;DHT22;4255;48.730;9.156;2024-03-06T03:46:42;7.80;99.90
8436;DHT22;4255;48.730;9.156;2024-03-06T03:49:08;7.80;99.90
8436;DHT22;4255;48.730;9.156;2024-03-06T03:51:38;7.70;99.90
8436;DHT22;4255;48.730;9.156;2024-03-06T03:54:04;7.70;99.90
8436;DHT22;4255;48.730;9.156;2024-03-06T03:56:30;7.80;99.90
8436;DHT22;4255;48.730;9.156;2024-03-06T03:58:57;7.70;99.90
8436;DHT22;4255;48.730;9.156;2024-03-06T04:01:23;7.70;99.90
8436;DHT22;4255;48.730;9.156;2024-03-06T04:03:49;7.50;99.90
8436;DHT22;4255;48.730;9.156;2024-03-06T04:06:16;7.40;99.90
8436;DHT22;4255;48.730;9.156;2024-03-06T04:08:41;7.40;99.90
8436;DHT22;4255;48.730;9.156;2024-03-06T04:11:07;7.50;99.90
8436;DHT22;4255;48.730;9.156;2024-03-06T04:13:37;7.60;99.90
8436;DHT22;4255;48.730;9.156;2024-03-06T04:16:03;7.60;99.90
8436;DHT22;4255;48.730;9.156;2024-03-06T04:18:29;7.50;99.90
8436;DHT22;4255;48.730;9.156;2024-03-06T04:21:03;7.50;99.90
8436;DHT22;4255;48.730;9.156;2024-03-06T04:23:29;7.50;99.90
8436;DHT22;4255;48.730;9.156;2024-03-06T04:25:55;7.50;99.90
8436;DHT22;4255;48.730;9.156;2024-03-06T04:28:21;7.40;99.90
8436;DHT22;4255;48.730;9.156;2024-03-06T04:30:47;7.40;99.90
8436;DHT22;4255;48.730;9.156;2024-03-06T04:33:12;7.30;99.90
8436;DHT22;4255;48.730;9.156;2024-03-06T04:35:40;7.50;99.90
8436;DHT22;4255;48.730;9.156;2024-03-06T04:38:06;7.40;99.90
8436;DHT22;4255;48.730;9.156;2024-03-06T04:40:32;7.20;99.90
8436;DHT22;4255;48.730;9.156;2024-03-06T04:42:57;7.00;99.90
8436;DHT22;4255;48.730;9.156;2024-03-06T04:45:23;7.00;99.90
8436;DHT22;4255;48.730;9.156;2024-03-06T04:47:49;7.00;99.90
8436;DHT22;4255;48.730;9.156;2024-03-06T04:50:14;7.00;99.90
8436;DHT22;4255;48.730;9.156;2024-03-06T04:52:41;7.10;99.90
8436;DHT22;4255;48.730;9.156;2024-03-06T04:55:08;7.20;99.90
8436;DHT22;4255;48.730;9.156;2024-03-06T04:57:37;7.10;99.90
8436;DHT22;4255;48.730;9.156;2024-03-06T05:00:02;7.20;99.90
8436;DHT22;4255;48.730;9.156;2024-03-06T05:02:32;7.20;99.90
8436;DHT22;4255;48.730;9.156;2024-03-06T05:05:00;7.20;99.90
8436;DHT22;4255;48.730;9.156;2024-03-06T05:07:27;7.10;99.90
8436;DHT22;4255;48.730;9.156;2024-03-06T05:09:53;7.20;99.90
8436;DHT22;4255;48.730;9.156;2024-03-06T05:12:18;7.00;99.90
8436;DHT22;4255;48.730;9.156;2024-03-06T05:14:44;7.00;99.90
8436;DHT22;4255;48.730;9.156;2024-03-06T05:17:09;7.00;99.90
8436;DHT22;4255;48.730;9.156;2024-03-06T05:19:36;7.10;99.90
8436;DHT22;4255;48.730;9.156;2024-03-06T05:22:02;7.20;99.90
8436;DHT22;4255;48.730;9.156;2024-03-06T05:24:28;7.30;99.90
8436;DHT22;4255;48.730;9.156;2024-03-06T05:26:54;7.30;99.90
8436;DHT22;4255;48.730;9.156;2024-03-06T05:29:20;7.30;99.90
8436;DHT22;4255;48.730;9.156;2024-03-06T05:31:45;7.10;99.90
8436;DHT22;4255;48.730;9.156;2024-03-06T05:34:11;7.00;99.90
8436;DHT22;4255;48.730;9.156;2024-03-06T05:36:36;6.90;99.90
8436;DHT22;4255;48.730;9.156;2024-03-06T05:39:02;7.00;99.90
8436;DHT22;4255;48.730;9.156;2024-03-06T05:41:35;7.00;99.90
8436;DHT22;4255;48.730;9.156;2024-03-06T05:44:00;6.90;99.90
8436;DHT22;4255;48.730;9.156;2024-03-06T05:46:26;6.90;99.90
8436;DHT22;4255;48.730;9.156;2024-03-06T05:48:51;7.00;99.90
8436;DHT22;4255;48.730;9.156;2024-03-06T05:51:17;7.00;99.90
8436;DHT22;4255;48.730;9.156;2024-03-06T05:53:43;6.90;99.90
8436;DHT22;4255;48.730;9.156;2024-03-06T05:56:09;6.80;99.90
8436;DHT22;4255;48.730;9.156;2024-03-06T05:58:35;6.80;99.90
8436;DHT22;4255;48.730;9.156;2024-03-06T06:01:01;6.60;99.90
8436;DHT22;4255;48.730;9.156;2024-03-06T06:03:29;6.70;99.90
8436;DHT22;4255;48.730;9.156;2024-03-06T06:05:55;6.70;99.90
8436;DHT22;4255;48.730;9.156;2024-03-06T06:08:21;6.80;99.90
8436;DHT22;4255;48.730;9.156;2024-03-06T06:10:46;6.80;99.90
8436;DHT22;4255;48.730;9.156;2024-03-06T06:13:12;6.90;99.90
8436;DHT22;4255;48.730;9.156;2024-03-06T06:15:37;6.80;99.90
8436;DHT22;4255;48.730;9.156;2024-03-06T06:18:03;6.90;99.90
8436;DHT22;4255;48.730;9.156;2024-03-06T06:20:29;6.90;99.90
8436;DHT22;4255;48.730;9.156;2024-03-06T06:22:55;6.80;99.90
8436;DHT22;4255;48.730;9.156;2024-03-06T06:25:22;6.80;99.90
8436;DHT22;4255;48.730;9.156;2024-03-06T06:27:47;6.90;99.90
8436;DHT22;4255;48.730;9.156;2024-03-06T06:30:15;6.80;99.90
8436;DHT22;4255;48.730;9.156;2024-03-06T06:32:41;6.70;99.90
8436;DHT22;4255;48.730;9.156;2024-03-06T06:35:07;6.80;99.90
8436;DHT22;4255;48.730;9.156;2024-03-06T06:37:35;6.90;99.90
8436;DHT22;4255;48.730;9.156;2024-03-06T06:40:00;7.00;99.90
8436;DHT22;4255;48.730;9.156;2024-03-06T06:42:32;7.00;99.90
8436;DHT22;4255;48.730;9.156;2024-03-06T06:44:57;7.10;99.90
8436;DHT22;4255;48.730;9.156;2024-03-06T06:47:23;7.00;99.90
8436;DHT22;4255;48.730;9.156;2024-03-06T06:49:48;6.90;99.90
8436;DHT22;4255;48.730;9.156;2024-03-06T06:52:14;6.80;99.90
8436;DHT22;4255;48.730;9.156;2024-03-06T06:54:40;6.80;99.90
8436;DHT22;4255;48.730;9.156;2024-03-06T06:57:06;6.80;99.90
8436;DHT22;4255;48.730;9.156;2024-03-06T06:59:31;6.90;99.90
8436;DHT22;4255;48.730;9.156;2024-03-06T07:01:57;6.90;99.90
8436;DHT22;4255;48.730;9.156;2024-03-06T07:04:22;7.10;99.90
8436;DHT22;4255;48.730;9.156;2024-03-06T07:06:49;7.20;99.90
8436;DHT22;4255;48.730;9.156;2024-03-06T07:09:16;7.30;99.90
8436;DHT22;4255;48.730;9.156;2024-03-06T07:11:41;7.40;99.90
8436;DHT22;4255;48.730;9.156;2024-03-06T07:14:08;7.50;99.90
8436;DHT22;4255;48.730;9.156;2024-03-06T07:16:33;7.50;99.90
8436;DHT22;4255;48.730;9.156;2024-03-06T07:18:59;7.30;99.90
8436;DHT22;4255;48.730;9.156;2024-03-06T07:21:25;7.30;99.90
8436;DHT22;4255;48.730;9.156;2024-03-06T07:23:51;7.40;99.90
8436;DHT22;4255;48.730;9.156;2024-03-06T07:26:16;7.40;99.90
8436;DHT22;4255;48.730;9.156;2024-03-06T07:28:42;7.40;99.90
8436;DHT22;4255;48.730;9.156;2024-03-06T07:31:07;7.40;99.90
8436;DHT22;4255;48.730;9.156;2024-03-06T07:33:33;7.20;99.90
8436;DHT22;4255;48.730;9.156;2024-03-06T07:36:03;7.40;99.90
8436;DHT22;4255;48.730;9.156;2024-03-06T07:38:29;7.40;99.90
8436;DHT22;4255;48.730;9.156;2024-03-06T07:40:54;7.50;99.90
8436;DHT22;4255;48.730;9.156;2024-03-06T07:43:20;7.50;99.90
8436;DHT22;4255;48.730;9.156;2024-03-06T07:45:45;7.50;99.90
8436;DHT22;4255;48.730;9.156;2024-03-06T07:48:13;7.40;99.90
8436;DHT22;4255;48.730;9.156;2024-03-06T07:50:38;7.10;99.90
8436;DHT22;4255;48.730;9.156;2024-03-06T07:53:05;6.90;99.90
8436;DHT22;4255;48.730;9.156;2024-03-06T07:55:30;6.80;99.90
8436;DHT22;4255;48.730;9.156;2024-03-06T07:57:56;6.70;99.90
8436;DHT22;4255;48.730;9.156;2024-03-06T08:00:22;6.60;99.90
8436;DHT22;4255;48.730;9.156;2024-03-06T08:02:48;6.80;99.90
8436;DHT22;4255;48.730;9.156;2024-03-06T08:05:15;6.90;99.90
8436;DHT22;4255;48.730;9.156;2024-03-06T08:07:42;6.70;99.90
8436;DHT22;4255;48.730;9.156;2024-03-06T08:10:12;6.70;99.90
8436;DHT22;4255;48.730;9.156;2024-03-06T08:12:42;6.60;99.90
8436;DHT22;4255;48.730;9.156;2024-03-06T08:15:10;6.50;99.90
8436;DHT22;4255;48.730;9.156;2024-03-06T08:17:38;6.80;99.90
8436;DHT22;4255;48.730;9.156;2024-03-06T08:20:03;7.00;99.90
8436;DHT22;4255;48.730;9.156;2024-03-06T08:22:34;6.70;99.90
8436;DHT22;4255;48.730;9.156;2024-03-06T08:25:10;6.80;99.90
8436;DHT22;4255;48.730;9.156;2024-03-06T08:27:39;7.00;99.90
8436;DHT22;4255;48.730;9.156;2024-03-06T08:30:06;7.00;99.90
8436;DHT22;4255;48.730;9.156;2024-03-06T08:32:32;6.70;99.90
8436;DHT22;4255;48.730;9.156;2024-03-06T08:35:11;6.50;99.90
8436;DHT22;4255;48.730;9.156;2024-03-06T08:37:38;6.50;99.90
8436;DHT22;4255;48.730;9.156;2024-03-06T08:40:05;6.70;99.90
8436;DHT22;4255;48.730;9.156;2024-03-06T08:42:30;6.90;99.90
8436;DHT22;4255;48.730;9.156;2024-03-06T08:44:58;6.80;99.90
8436;DHT22;4255;48.730;9.156;2024-03-06T08:47:23;6.90;99.90
8436;DHT22;4255;48.730;9.156;2024-03-06T08:49:49;6.80;99.90
8436;DHT22;4255;48.730;9.156;2024-03-06T08:52:15;6.90;99.90
8436;DHT22;4255;48.730;9.156;2024-03-06T08:54:41;6.90;99.90
8436;DHT22;4255;48.730;9.156;2024-03-06T08:57:07;7.00;99.90
8436;DHT22;4255;48.730;9.156;2024-03-06T08:59:34;7.20;99.90
8436;DHT22;4255;48.730;9.156;2024-03-06T09:02:15;7.10;99.90
8436;DHT22;4255;48.730;9.156;2024-03-06T09:04:41;7.00;99.90
8436;DHT22;4255;48.730;9.156;2024-03-06T09:07:07;6.90;99.90
8436;DHT22;4255;48.730;9.156;2024-03-06T09:09:34;7.00;99.90
8436;DHT22;4255;48.730;9.156;2024-03-06T09:12:00;7.10;99.90
8436;DHT22;4255;48.730;9.156;2024-03-06T09:14:26;7.00;99.90
8436;DHT22;4255;48.730;9.156;2024-03-06T09:16:52;7.00;99.90
8436;DHT22;4255;48.730;9.156;2024-03-06T09:19:17;7.10;99.90
8436;DHT22;4255;48.730;9.156;2024-03-06T09:21:43;7.10;99.90
8436;DHT22;4255;48.730;9.156;2024-03-06T09:24:08;7.00;99.90
8436;DHT22;4255;48.730;9.156;2024-03-06T09:26:34;6.90;99.90
8436;DHT22;4255;48.730;9.156;2024-03-06T09:29:00;6.90;99.90
8436;DHT22;4255;48.730;9.156;2024-03-06T09:31:26;6.90;99.90
8436;DHT22;4255;48.730;9.156;2024-03-06T09:33:53;7.00;99.90
8436;DHT22;4255;48.730;9.156;2024-03-06T09:36:18;7.00;99.90
8436;DHT22;4255;48.730;9.156;2024-03-06T09:38:44;7.00;99.90
8436;DHT22;4255;48.730;9.156;2024-03-06T09:41:10;6.90;99.90
8436;DHT22;4255;48.730;9.156;2024-03-06T09:43:35;6.90;99.90
8436;DHT22;4255;48.730;9.156;2024-03-06T09:46:01;6.90;99.90
8436;DHT22;4255;48.730;9.156;2024-03-06T09:48:29;6.80;99.90
8436;DHT22;4255;48.730;9.156;2024-03-06T09:51:00;6.90;99.90
8436;DHT22;4255;48.730;9.156;2024-03-06T09:53:27;6.90;99.90
8436;DHT22;4255;48.730;9.156;2024-03-06T09:55:54;7.00;99.90
8436;DHT22;4255;48.730;9.156;2024-03-06T09:58:20;7.10;99.90
8436;DHT22;4255;48.730;9.156;2024-03-06T10:00:48;6.90;99.90
8436;DHT22;4255;48.730;9.156;2024-03-06T10:03:15;7.00;99.90
8436;DHT22;4255;48.730;9.156;2024-03-06T10:05:42;7.10;99.90
8436;DHT22;4255;48.730;9.156;2024-03-06T10:08:09;7.10;99.90
8436;DHT22;4255;48.730;9.156;2024-03-06T10:10:35;6.90;99.90
8436;DHT22;4255;48.730;9.156;2024-03-06T10:13:02;6.90;99.90
8436;DHT22;4255;48.730;9.156;2024-03-06T10:15:28;7.10;99.90
8436;DHT22;4255;48.730;9.156;2024-03-06T10:18:13;7.10;99.90
8436;DHT22;4255;48.730;9.156;2024-03-06T10:20:39;7.10;99.90
8436;DHT22;4255;48.730;9.156;2024-03-06T10:23:06;7.20;99.90
8436;DHT22;4255;48.730;9.156;2024-03-06T10:25:34;7.40;99.90
8436;DHT22;4255;48.730;9.156;2024-03-06T10:30:28;7.40;99.90
8436;DHT22;4255;48.730;9.156;2024-03-06T10:32:53;7.70;99.90
8436;DHT22;4255;48.730;9.156;2024-03-06T10:35:20;7.60;99.90
8436;DHT22;4255;48.730;9.156;2024-03-06T10:37:46;7.70;99.90
8436;DHT22;4255;48.730;9.156;2024-03-06T10:40:14;7.70;99.90
8436;DHT22;4255;48.730;9.156;2024-03-06T10:42:41;7.70;99.90
8436;DHT22;4255;48.730;9.156;2024-03-06T10:45:08;7.60;99.90
8436;DHT22;4255;48.730;9.156;2024-03-06T10:47:36;7.50;99.90
8436;DHT22;4255;48.730;9.156;2024-03-06T10:50:04;7.50;99.90
8436;DHT22;4255;48.730;9.156;2024-03-06T10:52:36;7.60;99.90
8436;DHT22;4255;48.730;9.156;2024-03-06T10:55:03;7.60;99.90
8436;DHT22;4255;48.730;9.156;2024-03-06T10:57:29;7.60;99.90
8436;DHT22;4255;48.730;9.156;2024-03-06T10:59:56;7.70;99.90
8436;DHT22;4255;48.730;9.156;2024-03-06T11:02:24;7.70;99.90
8436;DHT22;4255;48.730;9.156;2024-03-06T11:04:53;7.80;99.90
8436;DHT22;4255;48.730;9.156;2024-03-06T11:07:19;7.80;99.90
8436;DHT22;4255;48.730;9.156;2024-03-06T11:09:45;7.80;99.90
8436;DHT22;4255;48.730;9.156;2024-03-06T11:12:35;7.60;99.90
8436;DHT22;4255;48.730;9.156;2024-03-06T11:15:14;7.60;99.90
8436;DHT22;4255;48.730;9.156;2024-03-06T11:17:41;7.60;99.90
8436;DHT22;4255;48.730;9.156;2024-03-06T11:20:17;7.60;99.90
8436;DHT22;4255;48.730;9.156;2024-03-06T11:25:55;7.70;99.90
8436;DHT22;4255;48.730;9.156;2024-03-06T11:30:48;7.60;99.90
8436;DHT22;4255;48.730;9.156;2024-03-06T11:33:17;7.80;99.90
8436;DHT22;4255;48.730;9.156;2024-03-06T11:35:43;7.80;99.90
8436;DHT22;4255;48.730;9.156;2024-03-06T11:38:17;7.80;99.90
8436;DHT22;4255;48.730;9.156;2024-03-06T11:40:43;7.70;99.90
8436;DHT22;4255;48.730;9.156;2024-03-06T11:43:25;7.80;99.90
8436;DHT22;4255;48.730;9.156;2024-03-06T11:45:52;7.80;99.90
8436;DHT22;4255;48.730;9.156;2024-03-06T11:48:18;7.80;99.90
8436;DHT22;4255;48.730;9.156;2024-03-06T11:50:47;7.80;99.90
8436;DHT22;4255;48.730;9.156;2024-03-06T11:53:16;7.70;99.90
8436;DHT22;4255;48.730;9.156;2024-03-06T11:55:42;7.70;99.90
8436;DHT22;4255;48.730;9.156;2024-03-06T11:58:08;7.70;99.90
8436;DHT22;4255;48.730;9.156;2024-03-06T12:00:37;7.70;99.90
8436;DHT22;4255;48.730;9.156;2024-03-06T12:03:03;7.60;99.90
8436;DHT22;4255;48.730;9.156;2024-03-06T12:05:31;7.70;99.90
8436;DHT22;4255;48.730;9.156;2024-03-06T12:07:56;7.50;99.90
8436;DHT22;4255;48.730;9.156;2024-03-06T12:10:22;7.30;99.90
8436;DHT22;4255;48.730;9.156;2024-03-06T12:12:48;7.40;99.90
8436;DHT22;4255;48.730;9.156;2024-03-06T12:15:14;7.20;99.90
8436;DHT22;4255;48.730;9.156;2024-03-06T12:17:48;7.30;99.90
8436;DHT22;4255;48.730;9.156;2024-03-06T12:20:14;7.30;99.90
8436;DHT22;4255;48.730;9.156;2024-03-06T12:22:52;7.50;99.90
8436;DHT22;4255;48.730;9.156;2024-03-06T12:25:22;7.50;99.90
8436;DHT22;4255;48.730;9.156;2024-03-06T12:27:48;7.60;99.90
8436;DHT22;4255;48.730;9.156;2024-03-06T12:30:18;7.60;99.90
8436;DHT22;4255;48.730;9.156;2024-03-06T12:32:56;7.50;99.90
8436;DHT22;4255;48.730;9.156;2024-03-06T12:35:26;7.50;99.90
8436;DHT22;4255;48.730;9.156;2024-03-06T12:37:52;7.40;99.90
8436;DHT22;4255;48.730;9.156;2024-03-06T12:40:18;7.50;99.90
8436;DHT22;4255;48.730;9.156;2024-03-06T12:42:44;7.40;99.90
8436;DHT22;4255;48.730;9.156;2024-03-06T12:45:11;7.40;99.90
8436;DHT22;4255;48.730;9.156;2024-03-06T12:47:43;7.40;99.90
8436;DHT22;4255;48.730;9.156;2024-03-06T12:50:11;7.40;99.90
8436;DHT22;4255;48.730;9.156;2024-03-06T12:52:37;7.40;99.90
8436;DHT22;4255;48.730;9.156;2024-03-06T12:55:03;7.40;99.90
8436;DHT22;4255;48.730;9.156;2024-03-06T12:57:32;7.30;99.90
8436;DHT22;4255;48.730;9.156;2024-03-06T12:59:58;7.20;99.90
8436;DHT22;4255;48.730;9.156;2024-03-06T13:02:24;7.30;99.90
8436;DHT22;4255;48.730;9.156;2024-03-06T13:04:50;7.40;99.90
8436;DHT22;4255;48.730;9.156;2024-03-06T13:07:15;7.30;99.90
8436;DHT22;4255;48.730;9.156;2024-03-06T13:09:41;7.30;99.90
8436;DHT22;4255;48.730;9.156;2024-03-06T13:12:07;7.20;99.90
8436;DHT22;4255;48.730;9.156;2024-03-06T13:14:33;7.20;99.90
8436;DHT22;4255;48.730;9.156;2024-03-06T13:16:59;7.30;99.90
8436;DHT22;4255;48.730;9.156;2024-03-06T13:19:25;7.40;99.90
8436;DHT22;4255;48.730;9.156;2024-03-06T13:21:51;7.60;99.90
8436;DHT22;4255;48.730;9.156;2024-03-06T13:24:18;7.40;99.90
8436;DHT22;4255;48.730;9.156;2024-03-06T13:26:47;7.50;99.90
8436;DHT22;4255;48.730;9.156;2024-03-06T13:29:13;7.30;99.90
8436;DHT22;4255;48.730;9.156;2024-03-06T13:31:39;7.40;99.90
8436;DHT22;4255;48.730;9.156;2024-03-06T13:34:05;7.50;99.90
8436;DHT22;4255;48.730;9.156;2024-03-06T13:36:30;7.40;99.90
8436;DHT22;4255;48.730;9.156;2024-03-06T13:38:56;7.50;99.90
8436;DHT22;4255;48.730;9.156;2024-03-06T13:41:22;7.30;99.90
8436;DHT22;4255;48.730;9.156;2024-03-06T13:43:48;7.30;99.90
8436;DHT22;4255;48.730;9.156;2024-03-06T13:46:14;7.40;99.90
8436;DHT22;4255;48.730;9.156;2024-03-06T13:48:40;7.60;99.90
8436;DHT22;4255;48.730;9.156;2024-03-06T13:51:05;7.50;99.90
8436;DHT22;4255;48.730;9.156;2024-03-06T13:53:31;7.50;99.90
8436;DHT22;4255;48.730;9.156;2024-03-06T13:55:57;7.70;99.90
8436;DHT22;4255;48.730;9.156;2024-03-06T13:58:22;7.90;99.90
8436;DHT22;4255;48.730;9.156;2024-03-06T14:00:48;8.10;99.90
8436;DHT22;4255;48.730;9.156;2024-03-06T14:03:14;8.10;99.90
8436;DHT22;4255;48.730;9.156;2024-03-06T14:05:40;7.80;99.90
8436;DHT22;4255;48.730;9.156;2024-03-06T14:08:06;7.60;99.90
8436;DHT22;4255;48.730;9.156;2024-03-06T14:10:31;7.80;99.90
8436;DHT22;4255;48.730;9.156;2024-03-06T14:13:02;7.60;99.90
8436;DHT22;4255;48.730;9.156;2024-03-06T14:15:28;7.70;99.90
8436;DHT22;4255;48.730;9.156;2024-03-06T14:17:54;7.70;99.90
8436;DHT22;4255;48.730;9.156;2024-03-06T14:20:20;7.70;99.90
8436;DHT22;4255;48.730;9.156;2024-03-06T14:22:46;7.60;99.90
8436;DHT22;4255;48.730;9.156;2024-03-06T14:25:11;7.50;99.90
8436;DHT22;4255;48.730;9.156;2024-03-06T14:27:37;7.50;99.90
8436;DHT22;4255;48.730;9.156;2024-03-06T14:30:04;7.40;99.90
8436;DHT22;4255;48.730;9.156;2024-03-06T14:32:32;7.30;99.90
8436;DHT22;4255;48.730;9.156;2024-03-06T14:34:58;7.40;99.90
8436;DHT22;4255;48.730;9.156;2024-03-06T14:37:23;7.30;99.90
8436;DHT22;4255;48.730;9.156;2024-03-06T14:39:49;7.40;99.90
8436;DHT22;4255;48.730;9.156;2024-03-06T14:42:16;7.30;99.90
8436;DHT22;4255;48.730;9.156;2024-03-06T14:44:42;7.40;99.90
8436;DHT22;4255;48.730;9.156;2024-03-06T14:47:09;7.30;99.90
8436;DHT22;4255;48.730;9.156;2024-03-06T14:49:35;7.40;99.90
8436;DHT22;4255;48.730;9.156;2024-03-06T14:52:01;7.40;99.90
8436;DHT22;4255;48.730;9.156;2024-03-06T14:54:28;7.50;99.90
8436;DHT22;4255;48.730;9.156;2024-03-06T14:56:54;7.50;99.90
8436;DHT22;4255;48.730;9.156;2024-03-06T14:59:21;7.40;99.90
8436;DHT22;4255;48.730;9.156;2024-03-06T15:01:46;7.40;99.90
8436;DHT22;4255;48.730;9.156;2024-03-06T15:04:13;7.50;99.90
8436;DHT22;4255;48.730;9.156;2024-03-06T15:06:39;7.60;99.90
8436;DHT22;4255;48.730;9.156;2024-03-06T15:09:05;7.70;99.90
8436;DHT22;4255;48.730;9.156;2024-03-06T15:11:31;7.70;99.90
8436;DHT22;4255;48.730;9.156;2024-03-06T15:13:59;7.70;99.90
8436;DHT22;4255;48.730;9.156;2024-03-06T15:16:25;7.60;99.90
8436;DHT22;4255;48.730;9.156;2024-03-06T15:18:51;7.60;99.90
8436;DHT22;4255;48.730;9.156;2024-03-06T15:21:19;7.50;99.90
8436;DHT22;4255;48.730;9.156;2024-03-06T15:23:44;7.50;99.90
8436;DHT22;4255;48.730;9.156;2024-03-06T15:26:10;7.40;99.90
8436;DHT22;4255;48.730;9.156;2024-03-06T15:28:36;7.50;99.90
8436;DHT22;4255;48.730;9.156;2024-03-06T15:31:02;7.60;99.90
8436;DHT22;4255;48.730;9.156;2024-03-06T15:33:32;7.70;99.90
8436;DHT22;4255;48.730;9.156;2024-03-06T15:35:58;7.70;99.90
8436;DHT22;4255;48.730;9.156;2024-03-06T15:38:25;7.90;99.90
8436;DHT22;4255;48.730;9.156;2024-03-06T15:40:52;7.80;99.90
8436;DHT22;4255;48.730;9.156;2024-03-06T15:43:18;7.80;99.90
8436;DHT22;4255;48.730;9.156;2024-03-06T15:45:44;7.70;99.90
8436;DHT22;4255;48.730;9.156;2024-03-06T15:48:09;7.80;99.90
8436;DHT22;4255;48.730;9.156;2024-03-06T15:50:43;7.80;99.90
8436;DHT22;4255;48.730;9.156;2024-03-06T15:53:09;7.70;99.90
8436;DHT22;4255;48.730;9.156;2024-03-06T15:55:36;7.90;99.90
8436;DHT22;4255;48.730;9.156;2024-03-06T15:58:02;7.80;99.90
8436;DHT22;4255;48.730;9.156;2024-03-06T16:00:28;7.80;99.90
8436;DHT22;4255;48.730;9.156;2024-03-06T16:02:54;7.70;99.90
8436;DHT22;4255;48.730;9.156;2024-03-06T16:05:20;7.90;99.90
8436;DHT22;4255;48.730;9.156;2024-03-06T16:07:45;8.10;99.90
8436;DHT22;4255;48.730;9.156;2024-03-06T16:10:11;7.90;99.90
8436;DHT22;4255;48.730;9.156;2024-03-06T16:12:37;7.90;99.90
8436;DHT22;4255;48.730;9.156;2024-03-06T16:15:03;7.60;99.90
8436;DHT22;4255;48.730;9.156;2024-03-06T16:17:29;7.40;99.90
8436;DHT22;4255;48.730;9.156;2024-03-06T16:19:55;7.30;99.90
8436;DHT22;4255;48.730;9.156;2024-03-06T16:22:21;7.20;99.90
8436;DHT22;4255;48.730;9.156;2024-03-06T16:24:47;7.30;99.90